METAR AND TAF INFORMATION
METAR FOR SPZO
ADDS - METARS form results

(1931 UTC 29 September 2020)
Data provider http://aviationweather.gov/metar/data/
 
METAR text: SPZO 291930Z 29012KT 9999 VCSH SCT040 BKN100 15/06 Q1029 NOSIG RMK BIRD HAZARD RWY 28
Conditions at: SPZO (CUZCO/VELAZCO AS, PE) observed 1930 UTC 29 September 2020
Temperature: 15.0°C (59°F)
Dewpoint: 6.0°C (43°F) [RH = 55%]
Pressure (altimeter): 30.38 inches Hg (1029.0 mb)
Winds: from the WNW (290 degrees) at 14 MPH (12 knots; 6.2 m/s)
Visibility: 6 or more miles (10+ km)
Ceiling: 10000 feet AGL
Clouds: scattered clouds at 4000 feet AGL
broken clouds at 10000 feet AGL
Weather: VCSH  (showers in vicinity)

METAR text: SPZO 291900Z 31012KT 9999 VCSH SCT040 BKN100 15/03 Q1029 NOSIG RMK BIRD HAZARD RWY 28 PP000
Conditions at: SPZO (CUZCO/VELAZCO AS, PE) observed 1900 UTC 29 September 2020
Temperature: 15.0°C (59°F)
Dewpoint: 3.0°C (37°F) [RH = 44%]
Pressure (altimeter): 30.38 inches Hg (1029.0 mb)
Winds: from the NW (310 degrees) at 14 MPH (12 knots; 6.2 m/s)
Visibility: 6 or more miles (10+ km)
Ceiling: 10000 feet AGL
Clouds: scattered clouds at 4000 feet AGL
broken clouds at 10000 feet AGL
Weather: VCSH  (showers in vicinity)

Forecast for: SPZO (CUZCO/VELAZCO AS, PE)
Text: TAF SPZO 291700Z 2918/3018 11004KT 9999 SCT046 BKN100 TX19/2919Z TN08/3011Z
Forecast period: 1800 UTC 29 September 2020 to 1800 UTC 30 September 2020
Forecast type: FROM: standard forecast or significant change
Winds: from the ESE (110 degrees) at 5 MPH (4 knots; 2.1 m/s)
Visibility: 6 or more miles (10+ km)
Ceiling: 10000 feet AGL
Clouds: scattered clouds at 4600 feet AGL
broken clouds at 10000 feet AGL
Weather: no significant weather forecast for this period
Text: TEMPO 2918/2923 FEW040TCU SCT050 BKN080
Forecast period: 1800 to 2300 UTC 29 September 2020
Forecast type: TEMPORARY: The following changes expected for less than half the time period
Visibility: missing
Ceiling: 8000 feet AGL
Clouds: few clouds at 4000 feet AGL
scattered clouds at 5000 feet AGL
broken clouds at 8000 feet AGL
Weather: no significant weather forecast for this period

 AIRPORT MAP

 RUNWAY INFORMATION
Runway 10 Runway length 11146 ft Runway width 148 ft
Runway elevation 10860 ft Runway displaced threshold 0 ft Runway heading 96
Runway 28 Runway length 11146 ft Runway width 148 ft
Runway elevation 10702 ft Runway displaced threshold 0 ft Runway heading 276

 AIRPORT FREQUENCIES
Type APP Name CUSCO APP Frequency 120.6 MHZ
Type ATIS Name ATIS Frequency 127 MHZ
Type GND Name GND Frequency 121.9 MHZ
Type TWR Name CUSCO TWR Frequency 118.1 MHZ

 AIRPORT NEAR NAVIGATION AIDS
Type VOR-DME Name Urcos Frequency 115600 KHZ
Type VOR-DME Name Cusco Frequency 114900 KHZ